createdAt,value
2023-01-21T01:13:04.292Z,20.85
2023-01-21T02:36:43.592Z,34.43
2023-01-21T02:42:16.558Z,28.85
2023-01-21T02:47:26.150Z,23.10
2023-01-21T02:52:29.182Z,16.67
2023-01-21T02:57:40.109Z,22.38
2023-01-21T03:03:23.847Z,26.10
2023-01-21T03:08:37.277Z,20.10
2023-01-21T03:14:06.372Z,22.83
2023-01-21T03:19:14.151Z,16.70
2023-01-21T03:24:17.305Z,15.18
2023-01-21T03:29:26.809Z,6.87
2023-01-21T03:34:33.514Z,15.55
2023-01-21T03:39:49.231Z,12.87
2023-01-21T03:44:52.089Z,15.77
2023-01-21T03:50:03.551Z,9.25
2023-01-21T03:55:07.557Z,9.77
2023-01-21T04:00:11.335Z,17.33
2023-01-21T04:05:14.546Z,11.50
2023-01-21T04:10:18.140Z,9.00
2023-01-21T04:15:21.115Z,6.70
2023-01-21T04:20:23.877Z,6.20
2023-01-21T04:25:26.552Z,13.07
2023-01-21T04:30:29.261Z,17.50
2023-01-21T04:49:44.340Z,10.50
2023-01-21T04:54:47.121Z,11.07
2023-01-21T08:02:40.602Z,13.97
2023-01-21T08:07:43.398Z,20.55
2023-01-21T08:12:46.145Z,14.52
2023-01-21T08:17:49.315Z,12.57
2023-01-21T08:22:52.178Z,10.40
2023-01-21T08:27:55.055Z,13.17
2023-01-21T09:00:35.155Z,14.40
2023-01-21T09:05:38.127Z,13.27
2023-01-21T11:26:08.173Z,12.90
2023-01-21T11:31:27.308Z,15.77
2023-01-21T11:36:30.320Z,16.17
2023-01-21T11:41:34.203Z,17.25
2023-01-21T11:46:41.395Z,13.38
2023-01-21T11:51:46.290Z,8.23
2023-01-21T11:56:59.579Z,11.98
2023-01-21T12:02:33.549Z,8.10
2023-01-21T12:07:40.883Z,12.85
2023-01-21T12:12:43.766Z,12.15
2023-01-21T12:18:22.116Z,13.17
2023-01-21T12:23:46.706Z,20.85
2023-01-21T12:29:21.034Z,12.60
2023-01-21T12:34:51.730Z,13.10
2023-01-21T12:39:58.003Z,11.55
2023-01-21T12:45:00.743Z,14.93
2023-01-21T12:50:11.521Z,13.88
2023-01-21T12:55:39.300Z,13.47
2023-01-21T13:00:46.651Z,12.70
2023-01-21T13:06:38.007Z,11.75
2023-01-21T13:11:58.875Z,14.13
2023-01-21T13:17:10.170Z,16.00
2023-01-21T13:22:23.641Z,16.90
2023-01-21T13:27:51.948Z,20.00
2023-01-21T13:33:07.443Z,10.60
2023-01-21T13:38:16.243Z,21.63
2023-01-21T13:43:24.830Z,18.30
2023-01-21T13:49:01.395Z,19.97
2023-01-21T13:54:12.814Z,14.00
2023-01-21T13:59:31.871Z,17.50
2023-01-21T14:04:52.277Z,15.20
2023-01-21T14:10:23.597Z,19.00
2023-01-21T14:30:42.539Z,22.10
2023-01-21T14:36:07.922Z,21.80
2023-01-21T14:41:12.477Z,20.27
2023-01-21T14:46:26.034Z,20.48
2023-01-21T14:51:31.867Z,24.45
2023-01-21T14:56:35.745Z,20.60
2023-01-21T15:01:45.371Z,21.15
2023-01-21T15:06:53.485Z,26.37
2023-01-21T15:12:14.008Z,21.50
2023-01-21T15:17:54.008Z,21.33
2023-01-21T15:23:30.003Z,18.40
2023-01-21T15:28:59.990Z,20.17
2023-01-21T15:34:11.899Z,25.13
2023-01-21T15:39:25.177Z,17.05
2023-01-21T15:44:36.907Z,20.38
2023-01-21T15:50:05.873Z,23.03
2023-01-21T15:55:48.055Z,23.40
2023-01-21T16:01:06.350Z,17.67
2023-01-21T16:06:58.058Z,19.75
2023-01-21T16:12:28.367Z,26.55
2023-01-21T16:17:48.654Z,26.10
2023-01-21T16:22:56.666Z,22.92
2023-01-21T16:27:59.499Z,22.90
2023-01-21T16:33:10.580Z,23.70
2023-01-21T16:38:30.874Z,22.73
2023-01-21T16:43:45.300Z,38.37
2023-01-21T16:48:53.949Z,39.40
2023-01-21T16:54:20.695Z,37.43
2023-01-21T16:59:29.855Z,32.65
2023-01-21T17:04:32.775Z,33.03
2023-01-21T17:09:37.388Z,33.60
2023-01-21T17:14:40.268Z,37.58
2023-01-21T17:19:44.252Z,38.57
2023-01-21T17:24:57.735Z,36.75
2023-01-21T17:30:25.396Z,35.58
2023-01-21T17:35:30.737Z,32.47
2023-01-21T17:40:42.537Z,36.38
2023-01-21T17:45:47.367Z,37.53
2023-01-21T17:50:50.594Z,39.38
2023-01-21T17:56:02.709Z,34.25
2023-01-21T18:01:05.584Z,34.13
2023-01-21T18:58:24.550Z,59.63
2023-01-21T19:03:27.606Z,65.85
2023-01-21T19:08:30.533Z,57.10
2023-01-21T19:13:33.226Z,44.72
2023-01-21T19:18:36.468Z,62.20
2023-01-21T19:35:45.115Z,87.37
2023-01-21T19:40:48.699Z,68.47
2023-01-21T19:45:52.972Z,82.37
2023-01-21T19:50:55.875Z,77.20
2023-01-21T19:55:59.388Z,70.22
2023-01-21T20:01:02.362Z,65.63
2023-01-21T20:06:05.832Z,63.00
2023-01-21T20:11:08.590Z,54.40
2023-01-21T20:16:21.507Z,73.25
2023-01-21T20:21:24.305Z,66.65
2023-01-21T20:26:28.830Z,65.60
2023-01-21T20:31:31.592Z,68.90
2023-01-21T20:36:34.374Z,64.07
2023-01-21T20:41:37.194Z,65.45
2023-01-21T20:46:40.353Z,58.00
2023-01-21T20:51:43.106Z,60.90
2023-01-21T20:56:46.009Z,58.65
2023-01-21T21:01:48.966Z,80.97
2023-01-21T21:06:52.688Z,64.47
2023-01-21T21:11:55.430Z,48.70
2023-01-21T21:16:58.487Z,46.63
2023-01-21T21:22:01.215Z,47.88
2023-01-21T21:27:04.018Z,52.20
2023-01-21T21:32:07.223Z,46.45
2023-01-21T21:37:12.605Z,37.88
2023-01-21T21:42:33.628Z,45.47
2023-01-21T21:47:55.348Z,41.53
2023-01-21T21:52:58.150Z,43.27
2023-01-21T21:58:00.990Z,49.33
2023-01-21T22:03:05.671Z,50.00
2023-01-21T22:08:09.480Z,45.13
2023-01-21T22:13:12.227Z,49.15
2023-01-21T22:18:15.147Z,48.03
2023-01-21T22:23:18.176Z,42.03
2023-01-21T22:28:21.827Z,43.17
2023-01-21T22:33:24.547Z,44.67
2023-01-21T22:38:27.325Z,48.38
2023-01-21T22:43:31.203Z,46.63
2023-01-21T22:48:34.292Z,42.88
2023-01-21T22:53:37.032Z,42.05
2023-01-21T22:58:40.149Z,43.07
2023-01-21T23:03:42.836Z,34.00
2023-01-21T23:08:46.005Z,38.53
2023-01-21T23:13:49.935Z,16.85
2023-01-21T23:18:53.252Z,40.58
2023-01-21T23:23:55.992Z,31.27
2023-01-21T23:28:59.046Z,35.40
2023-01-21T23:34:03.542Z,30.27
2023-01-21T23:39:06.465Z,28.10
2023-01-21T23:44:10.747Z,11.70
2023-01-21T23:49:15.988Z,35.87
2023-01-21T23:54:20.159Z,29.85
2023-01-21T23:59:23.257Z,42.90
